Time;durP1;ratioP1;P1;durP2;ratioP2;P2;SDS_P1;SDS_P2;PMS_P1;PMS_P2;Temp;Humidity;BMP_temperature;BMP_pressure;BME280_temperature;BME280_humidity;BME280_pressure;Samples;Min_cycle;Max_cycle;Signal;HPM_P1;HPM_P2
2022/06/25 00:02:05;;;;;;;8.23;5.90;;;21.50;99.90;;;;;;6250382;28;20240;-65
2022/06/25 00:08:30;;;;;;;8.50;6.17;;;21.40;99.90;;;;;;6226528;28;20240;-65
2022/06/25 00:14:55;;;;;;;8.53;5.67;;;21.30;99.90;;;;;;6251316;28;20565;-65
2022/06/25 00:17:58;;;;;;;8.93;6.43;;;21.20;99.90;;;;;;6251217;28;20224;-65
2022/06/25 00:21:02;;;;;;;7.17;5.63;;;21.30;99.90;;;;;;6250606;28;20228;-65
2022/06/25 00:24:06;;;;;;;9.30;6.10;;;21.30;99.90;;;;;;6249917;28;20239;-65
2022/06/25 00:27:09;;;;;;;6.87;5.80;;;21.30;99.90;;;;;;6249946;28;20232;-64
2022/06/25 00:30:13;;;;;;;10.00;5.47;;;21.20;99.90;;;;;;6251174;28;20251;-64
2022/06/25 00:33:16;;;;;;;7.30;5.53;;;21.30;99.90;;;;;;6250225;28;20580;-64
2022/06/25 00:36:20;;;;;;;9.33;5.97;;;21.20;99.90;;;;;;6250143;28;20528;-64
2022/06/25 00:39:23;;;;;;;14.70;5.97;;;21.20;99.90;;;;;;6250031;28;20225;-64
2022/06/25 00:42:26;;;;;;;11.07;6.73;;;21.20;99.90;;;;;;6250022;28;20228;-65
2022/06/25 00:45:30;;;;;;;7.87;6.50;;;21.20;99.90;;;;;;6249835;28;20228;-65
2022/06/25 00:48:34;;;;;;;10.30;7.33;;;21.10;99.90;;;;;;6249750;28;20282;-65
2022/06/25 00:51:40;;;;;;;10.30;6.60;;;21.00;99.90;;;;;;6249875;28;20247;-65
2022/06/25 00:54:48;;;;;;;10.10;6.40;;;20.90;99.90;;;;;;6250505;28;20259;-65
2022/06/25 00:57:53;;;;;;;6.80;6.20;;;20.90;99.90;;;;;;6240958;28;20228;-65
2022/06/25 01:00:59;;;;;;;12.13;6.93;;;20.80;99.90;;;;;;6249609;28;20553;-65
2022/06/25 01:04:02;;;;;;;8.40;6.80;;;20.70;99.90;;;;;;6249663;28;20244;-65
2022/06/25 01:07:06;;;;;;;15.57;7.60;;;20.70;99.90;;;;;;6253131;28;20245;-65
2022/06/25 01:10:12;;;;;;;7.10;6.03;;;20.60;99.90;;;;;;6254080;28;20676;-65
2022/06/25 01:13:16;;;;;;;14.43;6.90;;;20.50;99.90;;;;;;6254102;28;20232;-65
2022/06/25 01:16:21;;;;;;;10.40;6.30;;;20.50;99.90;;;;;;6254011;28;20664;-65
2022/06/25 01:19:24;;;;;;;10.90;6.37;;;20.50;99.90;;;;;;6254143;28;20239;-65
2022/06/25 01:22:29;;;;;;;10.47;6.83;;;20.40;99.90;;;;;;6253943;28;20232;-64
2022/06/25 01:25:34;;;;;;;10.20;6.43;;;20.40;99.90;;;;;;6253962;28;20235;-64
2022/06/25 01:28:38;;;;;;;8.23;7.07;;;20.30;99.90;;;;;;6253940;28;20225;-65
2022/06/25 01:31:41;;;;;;;10.13;6.83;;;20.30;99.90;;;;;;6253344;28;20232;-64
2022/06/25 01:34:44;;;;;;;7.87;7.07;;;20.30;99.90;;;;;;6253742;28;20680;-65
2022/06/25 01:37:50;;;;;;;6.73;6.10;;;20.20;99.90;;;;;;6253752;28;20579;-65
2022/06/25 01:40:53;;;;;;;11.00;6.03;;;20.20;99.90;;;;;;6253452;28;20232;-65
2022/06/25 01:43:56;;;;;;;6.43;5.83;;;20.20;99.90;;;;;;6253745;28;20270;-65
2022/06/25 01:46:59;;;;;;;6.00;5.03;;;20.20;99.90;;;;;;6253385;28;20229;-65
2022/06/25 01:50:03;;;;;;;6.37;5.70;;;20.20;99.90;;;;;;6253103;28;20573;-65
2022/06/25 01:53:08;;;;;;;5.37;4.80;;;20.20;99.90;;;;;;6253010;28;20232;-65
2022/06/25 01:56:11;;;;;;;8.70;5.60;;;20.20;99.90;;;;;;6252759;28;20582;-65
2022/06/25 01:59:14;;;;;;;6.50;4.57;;;20.10;99.90;;;;;;6252627;28;20229;-65
2022/06/25 02:02:17;;;;;;;6.47;4.30;;;20.00;99.90;;;;;;6248083;28;20251;-65
2022/06/25 02:05:56;;;;;;;3.70;2.40;;;20.00;99.90;;;;;;6252836;28;20232;-65
2022/06/25 02:08:46;;;;;;;2.47;1.97;;;20.00;99.90;;;;;;6252601;28;20634;-65
2022/06/25 02:11:49;;;;;;;5.20;1.83;;;19.90;99.90;;;;;;6253102;28;20204;-65
2022/06/25 02:14:52;;;;;;;1.63;1.33;;;20.00;99.90;;;;;;6252486;28;20208;-65
2022/06/25 02:17:56;;;;;;;2.03;1.60;;;20.00;99.90;;;;;;6252607;28;20654;-65
2022/06/25 02:20:59;;;;;;;1.40;1.20;;;20.00;99.90;;;;;;6252994;28;20224;-65
2022/06/25 02:24:03;;;;;;;2.07;1.10;;;20.00;99.90;;;;;;6252706;28;20569;-65
2022/06/25 02:27:07;;;;;;;1.57;1.20;;;20.00;99.90;;;;;;6252407;28;20566;-65
2022/06/25 02:30:10;;;;;;;4.50;1.20;;;19.90;99.90;;;;;;6253254;28;20239;-65
2022/06/25 02:33:15;;;;;;;4.27;1.40;;;20.00;99.90;;;;;;6254180;28;20236;-65
2022/06/25 02:36:18;;;;;;;1.10;1.00;;;20.00;99.90;;;;;;6251846;28;20586;-65
2022/06/25 02:39:23;;;;;;;1.43;0.80;;;20.00;99.90;;;;;;6251690;28;20228;-65
2022/06/25 02:42:32;;;;;;;2.53;1.03;;;19.90;99.90;;;;;;6244289;28;20237;-65
2022/06/25 02:45:35;;;;;;;3.23;1.07;;;19.90;99.90;;;;;;6235791;28;20679;-65
2022/06/25 02:48:38;;;;;;;1.70;1.50;;;19.80;99.90;;;;;;6242940;28;20685;-65
2022/06/25 02:51:41;;;;;;;1.47;1.00;;;19.80;99.90;;;;;;6237540;28;20338;-65
2022/06/25 02:54:46;;;;;;;2.03;0.97;;;19.80;99.90;;;;;;6242220;28;20225;-65
2022/06/25 03:01:09;;;;;;;1.73;0.90;;;19.80;99.90;;;;;;6252074;28;20228;-65
2022/06/25 03:04:12;;;;;;;1.63;1.23;;;19.80;99.90;;;;;;6251662;28;20251;-65
2022/06/25 03:07:16;;;;;;;0.87;0.80;;;19.80;99.90;;;;;;6248585;28;20559;-64
2022/06/25 03:10:20;;;;;;;2.83;1.50;;;19.70;99.90;;;;;;6251188;28;20225;-64
2022/06/25 03:13:23;;;;;;;1.87;1.30;;;19.70;99.90;;;;;;6251296;28;20232;-64
2022/06/25 03:16:27;;;;;;;1.30;1.20;;;19.70;99.90;;;;;;6251181;28;20319;-65
2022/06/25 03:19:30;;;;;;;2.23;0.90;;;19.70;99.90;;;;;;6251307;28;20233;-65
2022/06/25 03:22:33;;;;;;;2.20;1.00;;;19.60;99.90;;;;;;6251326;28;20315;-65
2022/06/25 03:25:37;;;;;;;1.33;1.23;;;19.60;99.90;;;;;;6251256;28;20228;-65
2022/06/25 03:28:40;;;;;;;2.83;1.30;;;19.70;99.90;;;;;;6250828;28;20241;-66
2022/06/25 03:31:44;;;;;;;1.73;1.47;;;19.70;99.90;;;;;;6233161;28;20229;-64
2022/06/25 03:34:47;;;;;;;3.60;0.90;;;19.70;99.90;;;;;;6244658;28;20305;-64
2022/06/25 03:37:50;;;;;;;1.23;1.13;;;19.70;99.90;;;;;;6231984;28;20236;-69
2022/06/25 03:41:32;;;;;;;2.23;1.10;;;19.70;99.90;;;;;;6245412;28;20228;-68
2022/06/25 03:44:18;;;;;;;1.93;1.07;;;19.70;99.90;;;;;;6250858;28;20575;-68
2022/06/25 03:47:21;;;;;;;2.40;0.90;;;19.60;99.90;;;;;;6250932;28;20249;-68
2022/06/25 03:50:24;;;;;;;1.60;0.70;;;19.70;99.90;;;;;;6250749;28;20228;-68
2022/06/25 03:53:27;;;;;;;1.00;0.70;;;19.70;99.90;;;;;;6250514;28;20232;-68
2022/06/25 03:56:32;;;;;;;1.30;1.10;;;19.70;99.90;;;;;;6250252;28;20227;-68
2022/06/25 03:59:35;;;;;;;1.20;1.10;;;19.70;99.90;;;;;;6250018;28;20303;-68
2022/06/25 04:02:38;;;;;;;0.90;0.90;;;19.80;99.90;;;;;;6226722;28;20236;-68
2022/06/25 04:05:41;;;;;;;1.73;0.67;;;19.80;99.90;;;;;;6250379;28;20212;-65
2022/06/25 04:08:44;;;;;;;0.60;0.50;;;19.90;99.90;;;;;;6239542;28;20541;-65
2022/06/25 04:11:49;;;;;;;3.30;0.70;;;20.00;99.90;;;;;;6227753;28;20650;-65
2022/06/25 04:14:52;;;;;;;1.50;0.50;;;20.10;99.90;;;;;;6247354;28;20201;-64
2022/06/25 04:17:55;;;;;;;0.90;0.40;;;20.10;99.90;;;;;;6228529;28;20575;-64
2022/06/25 04:20:58;;;;;;;1.80;0.50;;;20.20;99.90;;;;;;6250350;28;20239;-64
2022/06/25 04:24:02;;;;;;;0.60;0.30;;;20.30;99.90;;;;;;6250369;28;20227;-64
2022/06/25 04:27:07;;;;;;;0.73;0.33;;;20.40;99.90;;;;;;6250325;28;20597;-67
2022/06/25 04:30:10;;;;;;;0.60;0.37;;;20.50;99.90;;;;;;6247234;28;20231;-64
2022/06/25 04:33:13;;;;;;;1.27;0.40;;;20.60;99.90;;;;;;6232292;28;20236;-65
2022/06/25 04:36:16;;;;;;;1.27;0.30;;;20.70;99.90;;;;;;6248958;28;20232;-64
2022/06/25 04:39:19;;;;;;;0.80;0.40;;;20.70;99.90;;;;;;6248990;28;20224;-64
2022/06/25 04:42:24;;;;;;;0.80;0.70;;;20.70;99.90;;;;;;6252267;28;20278;-65
2022/06/25 04:45:28;;;;;;;0.60;0.40;;;20.70;99.90;;;;;;6253615;28;20224;-63
2022/06/25 04:48:31;;;;;;;1.13;0.57;;;20.70;99.90;;;;;;6252993;28;20710;-65
2022/06/25 04:51:34;;;;;;;0.70;0.33;;;20.80;99.90;;;;;;6244980;28;20243;-65
2022/06/25 04:54:37;;;;;;;0.60;0.40;;;20.90;99.90;;;;;;6236985;28;20244;-64
2022/06/25 04:57:41;;;;;;;0.73;0.30;;;21.10;99.90;;;;;;6244348;28;20793;-64
2022/06/25 05:00:45;;;;;;;1.03;0.30;;;21.30;99.90;;;;;;6238489;28;20242;-63
2022/06/25 05:03:48;;;;;;;3.13;0.30;;;21.40;99.30;;;;;;6243092;28;20233;-67
2022/06/25 05:06:51;;;;;;;1.27;0.30;;;21.50;99.50;;;;;;6238896;28;20232;-64
2022/06/25 05:09:54;;;;;;;0.50;0.40;;;21.60;99.10;;;;;;6241511;28;20233;-63
2022/06/25 05:13:14;;;;;;;2.30;0.30;;;21.70;99.00;;;;;;6239540;28;20700;-64
2022/06/25 05:16:17;;;;;;;0.70;0.30;;;21.90;98.60;;;;;;6238356;28;20228;-69
2022/06/25 05:19:21;;;;;;;0.77;0.30;;;22.10;98.10;;;;;;6242432;28;20706;-69
2022/06/25 05:22:24;;;;;;;0.60;0.40;;;22.20;98.10;;;;;;6237427;28;20233;-64
2022/06/25 05:25:28;;;;;;;0.50;0.20;;;22.40;97.90;;;;;;6243493;28;20239;-65
2022/06/25 05:28:32;;;;;;;2.10;0.40;;;22.60;97.60;;;;;;6231152;28;20227;-65
2022/06/25 05:31:35;;;;;;;1.53;0.40;;;22.80;97.20;;;;;;6235474;28;20224;-68
2022/06/25 05:34:38;;;;;;;0.53;0.20;;;22.90;96.60;;;;;;6203768;28;1099600;-68
2022/06/25 05:37:42;;;;;;;0.90;0.23;;;23.00;96.00;;;;;;6220384;28;20225;-68
2022/06/25 05:40:45;;;;;;;1.63;0.30;;;23.10;95.40;;;;;;6224267;28;20236;-68
2022/06/25 05:43:49;;;;;;;0.60;0.30;;;23.20;95.50;;;;;;6241450;28;20531;-68
2022/06/25 05:46:53;;;;;;;0.60;0.33;;;23.30;95.20;;;;;;6221212;28;20217;-68
2022/06/25 05:49:56;;;;;;;1.27;0.30;;;23.40;94.20;;;;;;6232025;28;20225;-68
2022/06/25 05:53:00;;;;;;;0.50;0.20;;;23.40;93.50;;;;;;6232795;28;20229;-68
2022/06/25 05:56:03;;;;;;;2.20;0.40;;;23.40;93.80;;;;;;6215782;28;20226;-69
2022/06/25 05:59:07;;;;;;;0.60;0.30;;;23.30;93.80;;;;;;6221187;28;20545;-69
2022/06/25 06:02:11;;;;;;;1.13;0.30;;;23.20;93.80;;;;;;6233164;28;20768;-68
2022/06/25 06:05:14;;;;;;;0.77;0.40;;;23.10;92.90;;;;;;6230148;28;20270;-69
2022/06/25 06:08:17;;;;;;;0.60;0.27;;;23.20;94.00;;;;;;6238263;28;20220;-68
2022/06/25 06:11:20;;;;;;;0.50;0.20;;;23.30;92.50;;;;;;6205444;28;20701;-68
2022/06/25 06:14:25;;;;;;;0.50;0.20;;;23.40;91.90;;;;;;6226488;28;20692;-68
2022/06/25 06:17:28;;;;;;;0.90;0.30;;;23.70;91.80;;;;;;6206184;28;20703;-69
2022/06/25 06:20:32;;;;;;;0.50;0.20;;;24.20;91.30;;;;;;6229364;28;20243;-69
2022/06/25 06:23:35;;;;;;;1.67;0.30;;;24.90;90.20;;;;;;6206180;28;20241;-68
2022/06/25 06:26:38;;;;;;;0.50;0.20;;;25.50;87.90;;;;;;6207102;28;20540;-68
2022/06/25 06:29:43;;;;;;;0.90;0.23;;;26.10;85.30;;;;;;6228715;28;20291;-69
2022/06/25 06:32:47;;;;;;;0.70;0.20;;;26.70;83.10;;;;;;6205657;28;20245;-68
2022/06/25 06:35:50;;;;;;;0.60;0.20;;;27.30;79.20;;;;;;6226834;28;20216;-68
2022/06/25 06:38:53;;;;;;;0.50;0.20;;;28.00;77.00;;;;;;6206646;28;20241;-69
2022/06/25 06:41:56;;;;;;;0.90;0.20;;;28.00;74.10;;;;;;6229096;28;20253;-69
2022/06/25 06:45:00;;;;;;;0.80;0.40;;;28.40;72.90;;;;;;6215396;28;20228;-69
2022/06/25 06:48:05;;;;;;;0.83;0.30;;;29.00;70.90;;;;;;6227392;28;20225;-70
2022/06/25 06:51:08;;;;;;;0.60;0.20;;;29.50;66.50;;;;;;6207846;28;20224;-69
2022/06/25 06:54:11;;;;;;;1.10;0.33;;;30.20;64.50;;;;;;6223018;28;20239;-68
2022/06/25 06:57:14;;;;;;;0.80;0.30;;;30.90;61.60;;;;;;6209620;28;20228;-68
2022/06/25 07:00:19;;;;;;;1.50;0.30;;;31.50;59.20;;;;;;6222503;28;20229;-68
2022/06/25 07:03:22;;;;;;;0.90;0.30;;;31.70;56.70;;;;;;6208783;28;20248;-70
2022/06/25 07:06:31;;;;;;;0.63;0.30;;;30.90;56.70;;;;;;6219462;28;20230;-69
2022/06/25 07:09:34;;;;;;;0.63;0.30;;;29.80;58.30;;;;;;6210514;28;20232;-69
2022/06/25 07:12:37;;;;;;;0.60;0.20;;;29.20;59.40;;;;;;6227004;28;20315;-69
2022/06/25 07:15:42;;;;;;;0.50;0.20;;;28.80;59.80;;;;;;6226987;28;20236;-69
2022/06/25 07:18:45;;;;;;;0.67;0.30;;;28.30;61.20;;;;;;6217566;28;20229;-69
2022/06/25 07:21:49;;;;;;;0.60;0.20;;;27.90;61.90;;;;;;6207820;28;20232;-68
2022/06/25 07:24:52;;;;;;;0.60;0.30;;;27.60;61.70;;;;;;6230333;28;20227;-68
2022/06/25 07:27:55;;;;;;;2.20;0.20;;;27.40;63.10;;;;;;6218185;28;20236;-69
2022/06/25 07:31:00;;;;;;;1.33;0.40;;;27.50;64.70;;;;;;6212532;28;20221;-68
2022/06/25 07:34:03;;;;;;;0.77;0.30;;;28.30;64.10;;;;;;6225885;28;20223;-69
2022/06/25 07:37:06;;;;;;;0.90;0.30;;;29.00;59.30;;;;;;6222748;28;20217;-69
2022/06/25 07:40:10;;;;;;;0.70;0.43;;;29.10;58.70;;;;;;6213153;28;20227;-65
2022/06/25 07:43:14;;;;;;;0.60;0.30;;;29.00;60.10;;;;;;6220585;28;20233;-65
2022/06/25 07:46:19;;;;;;;0.77;0.40;;;28.80;60.40;;;;;;6237741;28;20216;-65
2022/06/25 07:49:22;;;;;;;0.60;0.30;;;28.50;61.10;;;;;;6233026;28;20328;-65
2022/06/25 07:52:25;;;;;;;1.27;0.50;;;28.50;61.80;;;;;;6217223;28;20231;-66
2022/06/25 07:55:29;;;;;;;1.00;0.20;;;28.20;60.70;;;;;;6222242;28;20250;-65
2022/06/25 07:58:32;;;;;;;0.60;0.33;;;28.00;62.10;;;;;;6212263;28;20650;-65
2022/06/25 08:01:36;;;;;;;0.60;0.30;;;27.90;61.70;;;;;;6219739;28;20225;-67
2022/06/25 08:04:39;;;;;;;0.60;0.20;;;27.90;60.60;;;;;;6233610;28;20227;-65
2022/06/25 08:07:43;;;;;;;0.60;0.27;;;27.80;59.70;;;;;;6208840;28;20232;-65
2022/06/25 08:10:46;;;;;;;0.70;0.40;;;27.80;60.60;;;;;;6218974;28;20220;-65
2022/06/25 08:13:55;;;;;;;0.70;0.37;;;28.00;61.20;;;;;;6225778;28;20245;-68
2022/06/25 08:17:00;;;;;;;0.67;0.27;;;27.90;61.60;;;;;;6225983;28;20280;-69
2022/06/25 08:20:04;;;;;;;0.83;0.47;;;28.00;61.50;;;;;;6205781;28;20229;-69
2022/06/25 08:23:07;;;;;;;0.83;0.30;;;27.90;60.90;;;;;;6222442;28;20689;-68
2022/06/25 08:26:11;;;;;;;0.67;0.47;;;27.90;60.80;;;;;;6204696;28;20229;-66
2022/06/25 08:29:14;;;;;;;0.67;0.43;;;28.10;61.30;;;;;;6214583;28;20677;-65
2022/06/25 08:32:19;;;;;;;1.20;0.37;;;28.40;60.50;;;;;;6226166;28;20232;-65
2022/06/25 08:35:22;;;;;;;0.67;0.30;;;28.70;58.80;;;;;;6225744;28;20236;-65
2022/06/25 08:38:28;;;;;;;0.77;0.30;;;29.00;58.50;;;;;;6225703;28;20335;-65
2022/06/25 08:41:31;;;;;;;0.70;0.40;;;29.00;58.00;;;;;;6225704;28;20239;-66
2022/06/25 08:44:35;;;;;;;0.60;0.20;;;29.00;58.40;;;;;;6201009;28;20391;-65
2022/06/25 08:47:44;;;;;;;1.03;0.40;;;28.90;56.80;;;;;;6224840;28;20362;-66
2022/06/25 08:50:49;;;;;;;2.27;0.40;;;29.10;57.80;;;;;;6202253;28;20189;-65
2022/06/25 08:53:53;;;;;;;0.70;0.30;;;29.40;57.50;;;;;;6223659;28;20224;-65
2022/06/25 08:56:57;;;;;;;0.60;0.27;;;29.60;55.40;;;;;;6203632;28;20205;-65
2022/06/25 09:00:01;;;;;;;5.43;0.43;;;29.70;55.20;;;;;;6225025;28;20549;-65
2022/06/25 09:03:06;;;;;;;0.70;0.40;;;30.00;54.80;;;;;;6221763;28;20236;-65
2022/06/25 09:06:14;;;;;;;0.80;0.40;;;30.20;55.00;;;;;;6204942;28;20231;-65
2022/06/25 09:09:18;;;;;;;0.63;0.30;;;30.30;53.50;;;;;;6228113;28;20234;-65
2022/06/25 09:12:22;;;;;;;1.83;0.40;;;30.40;52.50;;;;;;6225397;28;20232;-65
2022/06/25 09:15:27;;;;;;;1.80;0.60;;;30.30;52.90;;;;;;6233562;28;20362;-66
2022/06/25 09:18:34;;;;;;;0.80;0.40;;;30.40;53.50;;;;;;6249456;28;20572;-67
2022/06/25 09:21:41;;;;;;;0.90;0.30;;;30.30;52.90;;;;;;6245886;28;20290;-66
2022/06/25 09:24:47;;;;;;;0.90;0.50;;;30.30;52.60;;;;;;6230121;28;20223;-65
2022/06/25 09:27:50;;;;;;;0.77;0.30;;;30.30;52.60;;;;;;6222554;28;20758;-67
2022/06/25 09:30:54;;;;;;;0.90;0.63;;;30.30;53.10;;;;;;6228184;28;20232;-65
2022/06/25 09:34:03;;;;;;;1.40;1.13;;;30.40;52.80;;;;;;6229175;28;20683;-67
2022/06/25 09:37:18;;;;;;;1.10;0.60;;;30.60;52.10;;;;;;6232567;28;20302;-67
2022/06/25 09:40:22;;;;;;;1.03;0.40;;;30.60;51.70;;;;;;6238965;28;20236;-70
2022/06/25 09:43:28;;;;;;;0.77;0.33;;;30.40;51.40;;;;;;6243739;28;20227;-70
2022/06/25 09:46:31;;;;;;;0.90;0.40;;;30.30;53.20;;;;;;6239365;28;20379;-70
2022/06/25 09:49:36;;;;;;;0.70;0.30;;;30.10;54.20;;;;;;6239698;28;20298;-71
2022/06/25 09:52:49;;;;;;;0.90;0.40;;;30.00;54.50;;;;;;6217687;28;20229;-69
2022/06/25 09:55:53;;;;;;;0.77;0.40;;;29.70;54.40;;;;;;6213617;28;20216;-69
2022/06/25 09:58:56;;;;;;;1.23;0.37;;;29.50;55.50;;;;;;6239368;28;20232;-69
2022/06/25 10:02:02;;;;;;;2.63;0.30;;;29.30;56.20;;;;;;6233293;28;21008;-69
2022/06/25 10:05:07;;;;;;;0.60;0.40;;;29.10;55.70;;;;;;6237107;28;20228;-69
2022/06/25 10:08:12;;;;;;;0.60;0.30;;;28.90;55.70;;;;;;6247607;28;20224;-68
2022/06/25 10:11:18;;;;;;;1.47;0.30;;;28.80;55.30;;;;;;6231193;28;20220;-65
2022/06/25 10:14:22;;;;;;;0.70;0.40;;;28.70;56.10;;;;;;6250416;28;20675;-65
2022/06/25 10:17:26;;;;;;;0.73;0.33;;;28.70;56.20;;;;;;6229934;28;20543;-64
2022/06/25 10:20:33;;;;;;;0.60;0.30;;;28.80;56.20;;;;;;6251251;28;20575;-65
2022/06/25 10:23:38;;;;;;;0.80;0.50;;;28.80;57.30;;;;;;6250888;28;20228;-65
2022/06/25 10:26:42;;;;;;;0.60;0.30;;;28.90;56.30;;;;;;6244163;28;20212;-65
2022/06/25 10:29:53;;;;;;;0.60;0.27;;;28.80;55.50;;;;;;6231198;28;20200;-64
2022/06/25 10:32:57;;;;;;;0.80;0.60;;;28.80;55.20;;;;;;6214687;28;20247;-65
2022/06/25 10:36:04;;;;;;;0.77;0.40;;;28.90;56.10;;;;;;6218608;28;20570;-64
2022/06/25 10:39:39;;;;;;;1.37;0.40;;;29.10;56.40;;;;;;6207942;28;20247;-65
2022/06/25 10:43:00;;;;;;;0.63;0.37;;;29.20;54.80;;;;;;6236391;28;20231;-65
2022/06/25 10:46:22;;;;;;;1.10;0.50;;;29.20;55.20;;;;;;6252342;28;20235;-65
2022/06/25 10:49:30;;;;;;;0.60;0.30;;;29.30;55.00;;;;;;6252727;28;20232;-66
2022/06/25 10:52:34;;;;;;;0.70;0.40;;;29.50;54.10;;;;;;6251832;28;20238;-65
2022/06/25 10:55:40;;;;;;;1.30;0.30;;;29.40;52.80;;;;;;6248250;28;20220;-64
2022/06/25 10:58:46;;;;;;;1.17;0.50;;;29.40;53.70;;;;;;6227018;28;20236;-64
2022/06/25 11:01:57;;;;;;;0.70;0.50;;;29.50;53.90;;;;;;6227026;28;20727;-64
2022/06/25 11:05:01;;;;;;;0.70;0.40;;;29.60;54.30;;;;;;6227022;28;20236;-64
2022/06/25 11:08:06;;;;;;;0.80;0.40;;;29.90;54.30;;;;;;6227395;28;20224;-64
2022/06/25 11:11:09;;;;;;;0.97;0.47;;;30.20;52.60;;;;;;6227039;28;20231;-66
2022/06/25 11:14:22;;;;;;;1.10;0.30;;;30.30;52.90;;;;;;6234585;28;20232;-64
2022/06/25 11:17:26;;;;;;;0.60;0.30;;;30.40;52.90;;;;;;6204154;28;20236;-64
2022/06/25 11:20:29;;;;;;;1.53;0.40;;;30.60;53.50;;;;;;6229482;28;20220;-64
2022/06/25 11:23:34;;;;;;;0.80;0.40;;;30.60;51.40;;;;;;6214121;28;20854;-64
2022/06/25 11:29:58;;;;;;;0.63;0.30;;;30.80;51.40;;;;;;6223924;28;20349;-68
2022/06/25 11:33:03;;;;;;;0.60;0.30;;;31.00;50.10;;;;;;6247296;28;20227;-68
2022/06/25 11:36:08;;;;;;;0.70;0.32;;;31.00;50.10;;;;;;6211478;28;20243;-68
2022/06/25 11:39:16;;;;;;;1.43;0.70;;;30.90;49.40;;;;;;6243608;28;20238;-68
2022/06/25 11:42:20;;;;;;;0.70;0.32;;;31.00;49.70;;;;;;6249692;28;20232;-68
2022/06/25 11:45:24;;;;;;;0.70;0.40;;;31.10;50.30;;;;;;6253290;28;20267;-69
2022/06/25 11:48:28;;;;;;;0.80;0.40;;;31.30;49.60;;;;;;6253814;28;20224;-68
2022/06/25 11:51:32;;;;;;;0.70;0.40;;;31.40;48.80;;;;;;6243169;28;20330;-67
2022/06/25 11:54:38;;;;;;;0.70;0.40;;;31.60;49.80;;;;;;6223057;28;20694;-69
2022/06/25 11:57:43;;;;;;;1.60;0.40;;;31.80;48.70;;;;;;6225067;28;20574;-70
2022/06/25 12:00:46;;;;;;;1.63;0.43;;;31.80;48.90;;;;;;6253673;28;20247;-70
2022/06/25 12:03:49;;;;;;;0.68;0.40;;;31.90;49.60;;;;;;6238311;28;20228;-69
2022/06/25 12:06:53;;;;;;;1.00;0.35;;;31.90;49.90;;;;;;6227856;28;20228;-68
2022/06/25 12:10:00;;;;;;;0.60;0.38;;;32.00;49.10;;;;;;6239902;28;20532;-69
2022/06/25 12:13:03;;;;;;;0.63;0.40;;;31.90;49.60;;;;;;6237117;28;20258;-69
2022/06/25 12:16:07;;;;;;;0.93;0.60;;;31.70;49.90;;;;;;6237799;28;20539;-69
2022/06/25 12:19:10;;;;;;;0.70;0.50;;;31.70;49.10;;;;;;6227704;28;20228;-69
2022/06/25 12:22:23;;;;;;;1.13;0.40;;;31.60;49.60;;;;;;6213869;28;20843;-68
2022/06/25 12:25:30;;;;;;;2.38;0.50;;;31.50;49.80;;;;;;6216131;28;20239;-68
2022/06/25 12:28:36;;;;;;;0.60;0.30;;;31.50;50.00;;;;;;6227548;28;20243;-69
2022/06/25 12:31:41;;;;;;;0.70;0.50;;;31.50;48.70;;;;;;6254365;28;20232;-68
2022/06/25 12:34:48;;;;;;;0.60;0.30;;;31.30;48.70;;;;;;6252228;28;20327;-68
2022/06/25 12:38:03;;;;;;;0.90;0.50;;;31.20;48.50;;;;;;6250882;28;20237;-68
2022/06/25 12:41:08;;;;;;;0.50;0.30;;;31.20;48.60;;;;;;6250404;28;20251;-68
2022/06/25 12:44:14;;;;;;;2.60;0.40;;;31.00;48.70;;;;;;6250653;28;20569;-68
2022/06/25 12:47:19;;;;;;;0.93;0.68;;;30.90;48.50;;;;;;6250642;28;20227;-70
2022/06/25 12:50:23;;;;;;;0.85;0.50;;;30.80;49.70;;;;;;6249748;28;20224;-68
2022/06/25 12:53:27;;;;;;;0.80;0.40;;;30.80;48.80;;;;;;6249820;28;20239;-68
2022/06/25 12:56:32;;;;;;;0.70;0.40;;;30.90;49.40;;;;;;6240254;28;20229;-69
2022/06/25 12:59:35;;;;;;;0.73;0.45;;;31.00;48.70;;;;;;6201276;28;20312;-68
2022/06/25 13:02:38;;;;;;;1.00;0.50;;;31.10;48.20;;;;;;6244157;28;20224;-68
2022/06/25 13:05:49;;;;;;;0.80;0.50;;;31.20;47.70;;;;;;6250016;28;20222;-68
2022/06/25 13:08:52;;;;;;;0.65;0.43;;;31.00;48.00;;;;;;6255944;28;20542;-67
2022/06/25 13:11:57;;;;;;;0.80;0.60;;;30.80;48.80;;;;;;6255954;28;20238;-69
2022/06/25 13:15:02;;;;;;;0.90;0.68;;;30.70;49.40;;;;;;6256609;28;20321;-70
2022/06/25 13:18:05;;;;;;;0.98;0.50;;;30.70;49.60;;;;;;6256565;28;20234;-73
2022/06/25 13:21:08;;;;;;;0.80;0.50;;;30.70;50.00;;;;;;6243169;28;20224;-72
2022/06/25 13:24:11;;;;;;;0.60;0.40;;;30.70;49.10;;;;;;6254086;28;20548;-70
2022/06/25 13:27:16;;;;;;;1.02;0.57;;;30.70;49.80;;;;;;6255057;28;20235;-70
2022/06/25 13:30:19;;;;;;;0.80;0.50;;;30.80;50.50;;;;;;6254021;28;20235;-69
2022/06/25 13:33:42;;;;;;;0.82;0.52;;;30.90;48.50;;;;;;6253484;28;20236;-70
2022/06/25 13:36:45;;;;;;;1.75;0.60;;;31.00;48.50;;;;;;6253529;28;20806;-71
2022/06/25 13:39:49;;;;;;;1.65;0.60;;;31.10;48.20;;;;;;6253340;28;20410;-71
2022/06/25 13:42:53;;;;;;;1.00;0.40;;;31.20;48.10;;;;;;6249219;28;20231;-73
2022/06/25 13:45:56;;;;;;;0.77;0.60;;;31.10;48.80;;;;;;6253619;28;20334;-71
2022/06/25 13:49:00;;;;;;;1.00;0.60;;;31.10;48.00;;;;;;6253462;28;20242;-71
2022/06/25 13:52:04;;;;;;;1.25;0.40;;;31.10;48.70;;;;;;6253146;28;20235;-71
2022/06/25 13:55:08;;;;;;;0.70;0.40;;;31.10;48.60;;;;;;6253122;28;20227;-69
2022/06/25 13:58:12;;;;;;;0.90;0.63;;;31.20;48.40;;;;;;6253090;28;20224;-68
2022/06/25 14:01:16;;;;;;;0.75;0.40;;;31.10;50.10;;;;;;6253587;28;20232;-70
2022/06/25 14:04:19;;;;;;;0.90;0.45;;;31.00;49.60;;;;;;6253821;28;20798;-69
2022/06/25 14:07:22;;;;;;;1.88;0.80;;;30.80;49.60;;;;;;6254728;28;20232;-69
2022/06/25 14:10:26;;;;;;;0.70;0.30;;;30.50;51.60;;;;;;6253907;28;20319;-70
2022/06/25 14:13:30;;;;;;;0.90;0.63;;;30.50;51.80;;;;;;6253081;28;20231;-70
2022/06/25 14:16:33;;;;;;;0.90;0.50;;;30.40;51.60;;;;;;6253304;28;20254;-71
2022/06/25 14:19:37;;;;;;;0.90;0.70;;;30.30;50.80;;;;;;6252791;28;20308;-69
2022/06/25 14:22:40;;;;;;;0.80;0.53;;;30.30;51.00;;;;;;6252341;28;20231;-70
2022/06/25 14:25:43;;;;;;;2.00;0.60;;;30.40;52.30;;;;;;6235884;28;20228;-69
2022/06/25 14:28:48;;;;;;;1.63;0.73;;;30.50;51.60;;;;;;6214075;28;20221;-70
2022/06/25 14:31:51;;;;;;;0.70;0.60;;;30.30;51.70;;;;;;6227454;28;20602;-70
2022/06/25 14:34:54;;;;;;;1.17;0.70;;;30.20;52.20;;;;;;6232435;28;20546;-67
2022/06/25 14:44:43;;;;;;;0.60;0.40;;;30.30;51.60;;;;;;6223346;28;20224;-71
2022/06/25 14:47:46;;;;;;;1.73;0.43;;;30.10;50.50;;;;;;6247815;28;20498;-69
2022/06/25 14:50:49;;;;;;;2.70;0.50;;;29.90;50.40;;;;;;6227667;28;20660;-69
2022/06/25 14:53:53;;;;;;;0.87;0.60;;;29.60;51.00;;;;;;6227933;28;20313;-69
2022/06/25 14:56:56;;;;;;;0.90;0.67;;;29.60;51.40;;;;;;6225196;28;20247;-68
2022/06/25 15:00:00;;;;;;;0.80;0.50;;;29.50;51.90;;;;;;6218610;28;20204;-68
2022/06/25 15:03:04;;;;;;;1.73;0.57;;;29.20;52.40;;;;;;6226636;28;20243;-68
2022/06/25 15:06:07;;;;;;;0.80;0.43;;;29.10;52.00;;;;;;6226837;28;20247;-68
2022/06/25 15:09:11;;;;;;;0.90;0.70;;;28.90;52.90;;;;;;6231292;28;20223;-68
2022/06/25 15:12:14;;;;;;;10.43;0.80;;;28.60;52.70;;;;;;6246251;28;20242;-68
2022/06/25 15:15:18;;;;;;;2.27;0.80;;;28.70;52.70;;;;;;6231969;28;20231;-68
2022/06/25 15:18:22;;;;;;;1.00;0.70;;;29.00;52.60;;;;;;6244238;28;20667;-68
2022/06/25 15:21:25;;;;;;;0.80;0.53;;;29.10;52.40;;;;;;6213494;28;20233;-68
2022/06/25 15:24:28;;;;;;;1.10;0.57;;;29.30;52.90;;;;;;6211334;28;20564;-68
2022/06/25 15:27:35;;;;;;;1.13;0.60;;;29.40;53.50;;;;;;6211823;28;20220;-68
2022/06/25 15:30:41;;;;;;;0.70;0.50;;;29.30;53.90;;;;;;6238200;28;20235;-69
2022/06/25 15:33:44;;;;;;;1.20;0.57;;;29.30;53.60;;;;;;6247287;28;20545;-69
2022/06/25 15:36:49;;;;;;;1.10;0.93;;;29.20;53.50;;;;;;6250964;28;20652;-70
2022/06/25 15:39:52;;;;;;;2.30;0.63;;;29.30;54.00;;;;;;6232348;28;20558;-69
2022/06/25 15:42:55;;;;;;;1.33;0.80;;;29.30;53.10;;;;;;6235991;28;20242;-69
2022/06/25 15:46:01;;;;;;;0.97;0.50;;;29.20;53.40;;;;;;6232791;28;20220;-69
2022/06/25 15:49:04;;;;;;;0.70;0.43;;;29.30;53.10;;;;;;6221478;28;20223;-69
2022/06/25 15:52:08;;;;;;;1.10;0.70;;;29.30;53.60;;;;;;6223341;28;20229;-68
2022/06/25 15:55:11;;;;;;;1.30;0.67;;;29.40;54.60;;;;;;6217390;28;20684;-69
2022/06/25 15:58:15;;;;;;;1.50;0.67;;;29.40;52.50;;;;;;6229482;28;20228;-69
2022/06/25 16:01:19;;;;;;;1.50;0.70;;;29.40;52.70;;;;;;6232923;28;20307;-69
2022/06/25 16:04:23;;;;;;;0.87;0.60;;;29.20;54.40;;;;;;6213409;28;20228;-69
2022/06/25 16:07:26;;;;;;;0.90;0.80;;;29.40;54.10;;;;;;6214246;28;20216;-69
2022/06/25 16:10:29;;;;;;;1.47;0.70;;;29.50;53.60;;;;;;6217780;28;20221;-70
2022/06/25 16:13:32;;;;;;;1.27;0.93;;;29.40;53.50;;;;;;6238266;28;20294;-69
2022/06/25 16:16:37;;;;;;;1.00;0.90;;;29.30;53.20;;;;;;6249902;28;20239;-69
2022/06/25 16:19:41;;;;;;;0.90;0.60;;;29.30;53.70;;;;;;6250070;28;20382;-65